Time;durP1;ratioP1;P1;durP2;ratioP2;P2;SDS_P1;SDS_P2;PMS_P1;PMS_P2;Temp;Humidity;BMP_temperature;BMP_pressure;BME280_temperature;BME280_humidity;BME280_pressure;Samples;Min_cycle;Max_cycle;Signal;HPM_P1;HPM_P2
2022/10/18 00:00:42;;;;;;;;;;;;;;;13.90;55.97;101325.56;4280043;33;20019;-85
2022/10/18 00:03:09;;;;;;;;;;;;;;;13.87;56.00;101325.47;4296622;33;20297;-85
2022/10/18 00:05:36;;;;;;;;;;;;;;;13.83;56.25;101315.84;4305987;33;20040;-85
2022/10/18 00:08:03;;;;;;;;;;;;;;;13.75;56.31;101316.47;4311595;33;19992;-85
2022/10/18 00:10:29;;;;;;;;;;;;;;;13.68;56.54;101321.50;4303194;33;20011;-84
2022/10/18 00:12:56;;;;;;;;;;;;;;;13.88;55.65;101324.66;4310215;33;20035;-85
2022/10/18 00:15:23;;;;;;;;;;;;;;;13.57;56.57;101315.13;4305258;33;19976;-84
2022/10/18 00:17:50;;;;;;;;;;;;;;;13.45;56.68;101313.06;4283376;33;20012;-85
2022/10/18 00:20:17;;;;;;;;;;;;;;;13.56;56.65;101309.88;4296688;33;20808;-84
2022/10/18 00:22:43;;;;;;;;;;;;;;;13.62;56.53;101299.62;4296824;33;20033;-84
2022/10/18 00:25:10;;;;;;;;;;;;;;;13.33;57.14;101304.91;4303861;33;19964;-85
2022/10/18 00:27:37;;;;;;;;;;;;;;;13.54;56.60;101303.78;4297415;33;20015;-85
2022/10/18 00:30:04;;;;;;;;;;;;;;;13.58;56.60;101303.00;4297016;33;20003;-84
2022/10/18 00:32:34;;;;;;;;;;;;;;;13.66;56.53;101296.31;4295059;33;19999;-84
2022/10/18 00:35:01;;;;;;;;;;;;;;;13.54;56.77;101301.16;4311351;33;19988;-85
2022/10/18 00:37:28;;;;;;;;;;;;;;;13.60;56.58;101296.12;4311369;33;20327;-85
2022/10/18 00:39:55;;;;;;;;;;;;;;;13.47;57.10;101301.00;4306010;33;20325;-85
2022/10/18 00:42:28;;;;;;;;;;;;;;;13.49;56.71;101303.63;4314942;33;20043;-85
2022/10/18 00:45:16;;;;;;;;;;;;;;;13.40;57.06;101293.88;4318413;33;19980;-84
2022/10/18 00:47:45;;;;;;;;;;;;;;;13.65;56.01;101299.72;4311476;33;20040;-85
2022/10/18 00:50:11;;;;;;;;;;;;;;;13.66;56.07;101291.97;4298650;33;20703;-86
2022/10/18 00:52:40;;;;;;;;;;;;;;;13.56;56.09;101295.16;4318043;33;19988;-85
2022/10/18 00:55:07;;;;;;;;;;;;;;;13.28;57.26;101296.12;4298674;33;19987;-85
2022/10/18 00:57:34;;;;;;;;;;;;;;;13.30;57.36;101289.22;4309382;33;20003;-84
2022/10/18 01:00:00;;;;;;;;;;;;;;;13.47;56.68;101290.59;4306653;33;19984;-84
2022/10/18 01:02:27;;;;;;;;;;;;;;;13.39;56.67;101286.88;4310006;33;19988;-85
2022/10/18 01:04:55;;;;;;;;;;;;;;;13.32;57.01;101279.75;4308504;33;20482;-84
2022/10/18 01:07:24;;;;;;;;;;;;;;;13.56;56.09;101278.66;4302968;33;19988;-84
2022/10/18 01:10:10;;;;;;;;;;;;;;;13.03;57.74;101279.78;4295848;33;19988;-84
2022/10/18 01:12:42;;;;;;;;;;;;;;;13.17;57.45;101274.97;4295969;33;19992;-84
2022/10/18 01:15:20;;;;;;;;;;;;;;;13.31;56.91;101272.81;4304723;33;19990;-83
2022/10/18 01:17:50;;;;;;;;;;;;;;;13.13;57.27;101274.84;4318554;33;19983;-84
2022/10/18 01:20:37;;;;;;;;;;;;;;;13.40;56.42;101267.84;4324055;33;19984;-85
2022/10/18 01:23:10;;;;;;;;;;;;;;;13.10;57.29;101261.75;4304103;33;19980;-84
2022/10/18 01:25:39;;;;;;;;;;;;;;;13.43;56.20;101260.13;4307235;33;19995;-85
2022/10/18 01:28:15;;;;;;;;;;;;;;;13.32;56.45;101258.94;4306615;33;19985;-85
2022/10/18 01:30:45;;;;;;;;;;;;;;;13.34;56.26;101252.09;4273219;33;19993;-85
2022/10/18 01:33:14;;;;;;;;;;;;;;;13.18;56.96;101255.06;4292661;33;20287;-85
2022/10/18 01:35:43;;;;;;;;;;;;;;;13.03;57.11;101261.56;4283192;33;19976;-84
2022/10/18 01:38:10;;;;;;;;;;;;;;;13.11;57.00;101261.78;4291858;33;19980;-84
2022/10/18 01:40:37;;;;;;;;;;;;;;;13.29;56.32;101258.00;4292085;33;20342;-83
2022/10/18 01:43:04;;;;;;;;;;;;;;;13.31;55.90;101254.59;4291882;33;20003;-85
2022/10/18 01:45:35;;;;;;;;;;;;;;;13.21;56.18;101249.94;4286317;33;19976;-84
2022/10/18 01:48:02;;;;;;;;;;;;;;;13.38;55.52;101242.63;4284706;33;20012;-83
2022/10/18 01:50:30;;;;;;;;;;;;;;;13.03;56.54;101245.97;4281203;33;20004;-85
2022/10/18 01:52:57;;;;;;;;;;;;;;;13.18;55.92;101245.53;4288594;33;20802;-84
2022/10/18 01:55:30;;;;;;;;;;;;;;;13.24;55.79;101234.41;4283889;33;19973;-85
2022/10/18 01:58:01;;;;;;;;;;;;;;;13.23;55.83;101237.84;4279459;33;19985;-85
2022/10/18 02:00:30;;;;;;;;;;;;;;;12.88;56.79;101224.72;4282731;33;19996;-85
2022/10/18 02:02:59;;;;;;;;;;;;;;;13.02;56.50;101239.03;4294103;33;19984;-84
2022/10/18 02:05:25;;;;;;;;;;;;;;;12.79;57.20;101235.78;4295954;33;19980;-85
2022/10/18 02:07:52;;;;;;;;;;;;;;;13.01;56.62;101221.66;4275645;33;19992;-85
2022/10/18 02:10:40;;;;;;;;;;;;;;;12.98;56.42;101220.69;4287400;33;19992;-85
2022/10/18 02:13:07;;;;;;;;;;;;;;;12.94;56.37;101217.13;4294429;33;20000;-84
2022/10/18 02:15:35;;;;;;;;;;;;;;;12.64;56.99;101224.03;4294724;33;20370;-83
2022/10/18 02:18:02;;;;;;;;;;;;;;;12.79;56.76;101219.28;4305026;33;20004;-85
2022/10/18 02:20:31;;;;;;;;;;;;;;;12.91;56.56;101219.63;4308475;33;20306;-84
2022/10/18 02:22:57;;;;;;;;;;;;;;;13.00;56.48;101219.91;4310445;33;20007;-85
2022/10/18 02:25:26;;;;;;;;;;;;;;;12.88;56.62;101224.72;4316912;33;19988;-84
2022/10/18 02:27:53;;;;;;;;;;;;;;;12.74;56.74;101220.88;4296375;33;19996;-84
2022/10/18 02:30:20;;;;;;;;;;;;;;;12.94;56.38;101230.13;4296615;33;19996;-84
2022/10/18 02:32:49;;;;;;;;;;;;;;;12.41;58.20;101226.81;4296303;33;19984;-84
2022/10/18 02:35:18;;;;;;;;;;;;;;;12.65;57.26;101225.78;4296054;33;19981;-85
2022/10/18 02:37:44;;;;;;;;;;;;;;;12.65;57.26;101231.00;4296166;33;20425;-84
2022/10/18 02:40:12;;;;;;;;;;;;;;;12.75;56.65;101217.44;4295789;33;19993;-84
2022/10/18 02:42:44;;;;;;;;;;;;;;;12.86;56.35;101226.44;4303892;33;19988;-85
2022/10/18 02:45:11;;;;;;;;;;;;;;;12.49;57.34;101235.72;4310638;33;19979;-84
2022/10/18 02:47:38;;;;;;;;;;;;;;;12.86;56.30;101229.03;4310869;33;20011;-85
2022/10/18 02:50:05;;;;;;;;;;;;;;;12.91;56.13;101219.63;4311860;33;19992;-83
2022/10/18 02:52:31;;;;;;;;;;;;;;;12.68;57.17;101220.69;4307178;33;20032;-85
2022/10/18 02:54:58;;;;;;;;;;;;;;;12.94;56.24;101219.72;4309240;33;20019;-85
2022/10/18 02:57:25;;;;;;;;;;;;;;;12.78;56.27;101222.72;4314845;33;19983;-85
2022/10/18 02:59:52;;;;;;;;;;;;;;;12.87;56.14;101225.59;4313290;33;20035;-84
2022/10/18 03:02:19;;;;;;;;;;;;;;;12.82;56.09;101224.56;4320181;33;20006;-84
2022/10/18 03:04:45;;;;;;;;;;;;;;;12.93;55.66;101223.16;4312222;33;19992;-85
2022/10/18 03:07:12;;;;;;;;;;;;;;;12.70;56.66;101216.41;4311590;33;20015;-84
2022/10/18 03:09:39;;;;;;;;;;;;;;;12.70;56.62;101224.19;4311740;33;20019;-84
2022/10/18 03:12:06;;;;;;;;;;;;;;;12.72;56.39;101222.53;4311728;33;20025;-84
2022/10/18 03:14:33;;;;;;;;;;;;;;;12.75;56.04;101235.62;4305806;33;19973;-85
2022/10/18 03:17:01;;;;;;;;;;;;;;;12.54;56.60;101228.94;4288373;33;20488;-84
2022/10/18 03:19:27;;;;;;;;;;;;;;;12.71;56.06;101231.16;4283920;33;20412;-85
2022/10/18 03:21:54;;;;;;;;;;;;;;;12.75;55.53;101236.50;4289657;33;19989;-84
2022/10/18 03:24:22;;;;;;;;;;;;;;;12.49;56.56;101235.72;4286382;33;20706;-83
2022/10/18 03:26:48;;;;;;;;;;;;;;;12.73;55.76;101240.78;4288037;33;20004;-85
2022/10/18 03:29:15;;;;;;;;;;;;;;;12.70;56.15;101234.59;4289629;33;20263;-83
2022/10/18 03:31:42;;;;;;;;;;;;;;;12.61;56.24;101239.53;4282368;33;20286;-84
2022/10/18 03:34:09;;;;;;;;;;;;;;;12.49;56.75;101235.72;4282163;33;20164;-85
2022/10/18 03:36:37;;;;;;;;;;;;;;;12.36;57.19;101238.78;4282488;33;20011;-84
2022/10/18 03:39:04;;;;;;;;;;;;;;;12.53;56.34;101237.56;4282944;33;19989;-85
2022/10/18 03:41:31;;;;;;;;;;;;;;;12.60;56.28;101237.75;4292839;33;19992;-86
2022/10/18 03:43:57;;;;;;;;;;;;;;;12.61;56.01;101240.41;4284502;33;19999;-83
2022/10/18 03:46:24;;;;;;;;;;;;;;;12.36;57.18;101243.97;4288965;33;20008;-85
2022/10/18 03:48:51;;;;;;;;;;;;;;;12.30;57.06;101243.75;4282222;33;20506;-86
2022/10/18 03:51:17;;;;;;;;;;;;;;;12.42;56.22;101238.97;4291734;33;20003;-85
2022/10/18 03:53:44;;;;;;;;;;;;;;;12.48;55.95;101249.53;4282450;33;19985;-85
2022/10/18 03:56:11;;;;;;;;;;;;;;;12.33;56.35;101243.87;4284269;33;20088;-85
2022/10/18 03:58:38;;;;;;;;;;;;;;;12.44;56.06;101247.66;3992386;33;10000067;-85
2022/10/18 04:01:05;;;;;;;;;;;;;;;12.52;55.83;101246.19;4294210;33;20015;-85
2022/10/18 04:03:32;;;;;;;;;;;;;;;12.30;56.72;101248.97;4297250;33;20256;-84
2022/10/18 04:05:59;;;;;;;;;;;;;;;12.27;56.96;101248.84;4308908;33;20007;-83
2022/10/18 04:08:26;;;;;;;;;;;;;;;12.63;56.10;101248.22;4286550;33;20000;-86
2022/10/18 04:10:53;;;;;;;;;;;;;;;12.37;56.60;101250.03;4293097;33;19981;-85
2022/10/18 04:13:20;;;;;;;;;;;;;;;12.59;56.01;101246.38;4282459;33;19996;-83
2022/10/18 04:15:46;;;;;;;;;;;;;;;12.45;56.29;101239.06;4281534;33;19977;-85
2022/10/18 04:18:13;;;;;;;;;;;;;;;12.40;56.13;101240.63;4311285;33;19972;-85
2022/10/18 04:20:40;;;;;;;;;;;;;;;12.43;56.04;101234.66;4311155;33;20003;-83
2022/10/18 04:23:07;;;;;;;;;;;;;;;12.33;56.19;101238.66;4311583;33;20000;-83
2022/10/18 04:25:34;;;;;;;;;;;;;;;12.31;56.24;101232.53;4297401;33;20315;-84
2022/10/18 04:28:01;;;;;;;;;;;;;;;12.36;56.14;101243.09;4311457;33;20487;-87
2022/10/18 04:30:31;;;;;;;;;;;;;;;12.38;55.89;101237.13;4310163;33;20006;-90
2022/10/18 04:33:17;;;;;;;;;;;;;;;12.26;56.18;101242.78;4297940;33;20722;-90
2022/10/18 04:35:44;;;;;;;;;;;;;;;12.28;56.17;101229.84;4311032;33;20385;-84
2022/10/18 04:38:13;;;;;;;;;;;;;;;12.32;56.15;101227.41;4311084;33;19988;-86
2022/10/18 04:40:40;;;;;;;;;;;;;;;12.18;56.86;101230.37;4317157;33;19992;-83
2022/10/18 04:43:06;;;;;;;;;;;;;;;12.20;56.69;101227.00;4311046;33;20050;-88
2022/10/18 04:45:33;;;;;;;;;;;;;;;12.14;56.85;101231.13;4313061;33;20329;-87
2022/10/18 04:48:00;;;;;;;;;;;;;;;12.22;56.93;101224.44;4317363;33;19995;-85
2022/10/18 04:50:27;;;;;;;;;;;;;;;12.27;56.34;101218.59;4314349;33;19984;-84
2022/10/18 04:52:55;;;;;;;;;;;;;;;12.29;56.00;101211.72;4315902;33;20703;-88
2022/10/18 04:55:22;;;;;;;;;;;;;;;12.00;57.40;101205.63;4310916;33;19980;-84
2022/10/18 04:57:49;;;;;;;;;;;;;;;12.28;55.97;101206.47;4296853;33;20000;-83
2022/10/18 05:00:16;;;;;;;;;;;;;;;12.22;56.02;101209.78;4313430;33;20006;-82
2022/10/18 05:02:43;;;;;;;;;;;;;;;12.13;56.31;101208.62;4307735;33;19984;-86
2022/10/18 05:05:09;;;;;;;;;;;;;;;12.15;56.27;101206.94;4310589;33;19984;-85
2022/10/18 05:07:39;;;;;;;;;;;;;;;11.91;56.68;101209.63;4310333;33;20828;-85
2022/10/18 05:10:06;;;;;;;;;;;;;;;11.97;56.57;101202.94;4316661;33;19980;-86
2022/10/18 05:12:33;;;;;;;;;;;;;;;12.08;56.12;101196.34;4324795;33;20742;-86
2022/10/18 05:15:00;;;;;;;;;;;;;;;11.88;56.72;101197.44;4325212;33;20042;-84
2022/10/18 05:17:27;;;;;;;;;;;;;;;11.68;57.37;101201.94;4318056;33;20000;-84
2022/10/18 05:19:54;;;;;;;;;;;;;;;11.66;57.53;101205.31;4318031;33;20020;-84
2022/10/18 05:22:21;;;;;;;;;;;;;;;11.75;57.35;101205.63;4310645;33;19996;-89
2022/10/18 05:24:48;;;;;;;;;;;;;;;11.75;57.32;101205.63;4305154;33;20948;-87
2022/10/18 05:27:14;;;;;;;;;;;;;;;11.70;57.56;101212.34;4317709;33;19993;-85
2022/10/18 05:29:41;;;;;;;;;;;;;;;11.73;57.60;101208.16;4323228;33;20585;-85
2022/10/18 05:32:08;;;;;;;;;;;;;;;11.91;57.07;101207.03;4322360;33;19984;-85
2022/10/18 05:34:35;;;;;;;;;;;;;;;12.14;56.66;101205.19;4315314;33;20024;-88
2022/10/18 05:37:02;;;;;;;;;;;;;;;11.97;57.16;101209.84;4312993;33;19996;-84
2022/10/18 05:39:29;;;;;;;;;;;;;;;11.84;57.68;101205.94;4323346;33;20002;-88
2022/10/18 05:41:56;;;;;;;;;;;;;;;11.89;57.22;101214.75;4308774;33;20039;-86
2022/10/18 05:44:23;;;;;;;;;;;;;;;11.82;58.01;101212.78;4302229;33;19968;-85
2022/10/18 05:46:50;;;;;;;;;;;;;;;11.57;58.76;101209.34;4310406;33;19984;-86
2022/10/18 05:49:17;;;;;;;;;;;;;;;11.74;58.06;101214.22;4309102;33;20459;-88
2022/10/18 05:51:44;;;;;;;;;;;;;;;12.02;57.27;101210.84;4314920;33;20455;-86
2022/10/18 05:54:11;;;;;;;;;;;;;;;12.12;57.20;101206.84;4297069;33;19987;-88
2022/10/18 05:56:38;;;;;;;;;;;;;;;11.88;58.18;101207.81;4317225;33;20302;-89
2022/10/18 05:59:10;;;;;;;;;;;;;;;12.05;57.84;101211.81;4302149;33;19984;-87
2022/10/18 06:01:38;;;;;;;;;;;;;;;12.24;57.35;101212.41;4325779;33;19997;-88
2022/10/18 06:04:06;;;;;;;;;;;;;;;12.15;58.31;101205.22;4325337;33;19976;-89
2022/10/18 06:06:32;;;;;;;;;;;;;;;12.34;58.19;101209.25;4324498;33;19996;-84
2022/10/18 06:09:02;;;;;;;;;;;;;;;12.50;57.94;101205.41;4310437;33;19992;-87
2022/10/18 06:11:29;;;;;;;;;;;;;;;12.38;58.24;101211.16;4324706;33;19984;-87
2022/10/18 06:13:56;;;;;;;;;;;;;;;12.43;58.88;101214.75;4323750;33;20098;-86
2022/10/18 06:16:23;;;;;;;;;;;;;;;12.49;58.62;101209.75;4322857;33;20530;-86
2022/10/18 06:18:58;;;;;;;;;;;;;;;12.28;59.68;101214.25;4300836;33;20007;-86
2022/10/18 06:21:25;;;;;;;;;;;;;;;12.43;59.68;101217.34;4296474;33;19992;-86
2022/10/18 06:23:53;;;;;;;;;;;;;;;12.54;59.52;101218.56;4281243;33;19992;-86
2022/10/18 06:26:20;;;;;;;;;;;;;;;12.80;59.08;101221.94;4283308;33;20000;-86
2022/10/18 06:28:47;;;;;;;;;;;;;;;12.72;59.67;101228.59;4297913;33;19988;-85
2022/10/18 06:31:14;;;;;;;;;;;;;;;12.88;59.61;101219.53;4284181;33;19999;-87
2022/10/18 06:33:41;;;;;;;;;;;;;;;13.01;59.74;101226.84;4283271;33;19984;-88
2022/10/18 06:36:13;;;;;;;;;;;;;;;13.13;59.92;101220.25;4283707;33;20035;-87
2022/10/18 06:38:40;;;;;;;;;;;;;;;13.10;60.34;101225.34;4283001;33;20047;-88
2022/10/18 06:41:07;;;;;;;;;;;;;;;13.11;60.68;101227.09;4289077;33;20004;-88
2022/10/18 06:43:34;;;;;;;;;;;;;;;13.17;60.70;101216.87;4277304;33;20020;-90
2022/10/18 06:46:03;;;;;;;;;;;;;;;13.34;60.35;101220.88;4283822;33;20011;-89
2022/10/18 06:48:30;;;;;;;;;;;;;;;13.51;60.36;101223.03;4284242;33;20118;-84
2022/10/18 06:50:57;;;;;;;;;;;;;;;13.68;60.52;101221.75;4292368;33;20003;-89
2022/10/18 06:53:25;;;;;;;;;;;;;;;14.07;59.76;101220.97;4284185;33;19993;-84
2022/10/18 06:55:57;;;;;;;;;;;;;;;14.28;58.66;101226.69;4269522;33;20011;-87
2022/10/18 06:59:01;;;;;;;;;;;;;;;14.62;58.00;101227.50;4282375;33;19981;-89
2022/10/18 07:01:55;;;;;;;;;;;;;;;14.98;57.61;101231.72;4282358;33;20007;-90
2022/10/18 07:04:21;;;;;;;;;;;;;;;15.54;56.84;101230.22;4283574;33;19996;-88
2022/10/18 07:06:48;;;;;;;;;;;;;;;15.87;57.11;101229.06;4289147;33;20350;-91
2022/10/18 07:09:15;;;;;;;;;;;;;;;16.11;56.55;101230.31;4281947;33;20000;-86
2022/10/18 07:11:42;;;;;;;;;;;;;;;16.33;56.45;101228.91;4283234;33;20925;-90
2022/10/18 07:14:09;;;;;;;;;;;;;;;16.55;56.15;101225.72;4295185;33;19989;-88
2022/10/18 07:16:42;;;;;;;;;;;;;;;16.80;55.46;101226.09;4292119;33;19981;-89
2022/10/18 07:19:08;;;;;;;;;;;;;;;16.96;55.42;101222.81;4285567;33;20012;-91
2022/10/18 07:21:35;;;;;;;;;;;;;;;17.27;55.07;101220.56;4283085;33;19985;-90
2022/10/18 07:24:02;;;;;;;;;;;;;;;17.46;54.34;101219.91;4274584;33;19973;-90
2022/10/18 07:26:30;;;;;;;;;;;;;;;17.76;53.53;101210.56;4291161;33;19997;-89
2022/10/18 07:28:59;;;;;;;;;;;;;;;17.87;52.95;101206.34;4281136;33;20011;-89
2022/10/18 07:31:26;;;;;;;;;;;;;;;18.17;52.19;101204.81;4282500;33;19996;-88
2022/10/18 07:33:53;;;;;;;;;;;;;;;18.40;51.17;101200.56;4284063;33;20003;-86
2022/10/18 07:36:20;;;;;;;;;;;;;;;18.60;50.45;101195.44;4298473;33;20479;-90
2022/10/18 07:38:48;;;;;;;;;;;;;;;18.81;49.25;101194.69;4311123;33;20047;-89
2022/10/18 07:41:14;;;;;;;;;;;;;;;18.85;48.74;101201.69;4311680;33;20005;-89
2022/10/18 07:43:43;;;;;;;;;;;;;;;19.22;48.50;101201.84;4308413;33;19976;-90
2022/10/18 07:46:10;;;;;;;;;;;;;;;19.45;47.21;101200.13;4157648;33;5087047;-89
2022/10/18 07:48:37;;;;;;;;;;;;;;;19.66;47.13;101194.06;4315957;33;19996;-88
2022/10/18 07:51:03;;;;;;;;;;;;;;;19.87;46.12;101201.03;3721046;33;10010016;-90
2022/10/18 07:53:31;;;;;;;;;;;;;;;20.06;45.17;101203.66;4324198;33;19988;-87
2022/10/18 07:55:58;;;;;;;;;;;;;;;20.08;45.54;101201.91;4314060;33;19995;-89
2022/10/18 07:58:29;;;;;;;;;;;;;;;20.31;45.06;101199.25;4312253;33;20035;-90
2022/10/18 08:00:56;;;;;;;;;;;;;;;20.42;45.08;101198.34;4319005;33;20334;-90
2022/10/18 08:03:23;;;;;;;;;;;;;;;20.34;45.09;101194.84;4300584;33;20330;-88
2022/10/18 08:05:51;;;;;;;;;;;;;;;20.58;44.57;101193.06;4325835;33;19998;-90
2022/10/18 08:08:18;;;;;;;;;;;;;;;20.59;43.05;101184.31;4325638;33;19984;-90
2022/10/18 08:10:46;;;;;;;;;;;;;;;20.64;43.42;101187.78;4272519;32;20356;-90
2022/10/18 08:13:12;;;;;;;;;;;;;;;20.63;44.40;101180.78;4313951;33;20000;-90
2022/10/18 08:15:39;;;;;;;;;;;;;;;21.08;42.30;101179.66;4325761;33;19972;-90
2022/10/18 08:18:06;;;;;;;;;;;;;;;21.18;40.15;101175.22;4325305;33;19987;-89
2022/10/18 08:20:35;;;;;;;;;;;;;;;21.16;39.39;101171.75;4013370;33;10003752;-90
2022/10/18 08:23:05;;;;;;;;;;;;;;;21.23;42.09;101168.19;4282853;33;20820;-90
2022/10/18 08:25:32;;;;;;;;;;;;;;;21.39;41.25;101162.84;4295532;33;20040;-88
2022/10/18 08:28:00;;;;;;;;;;;;;;;21.27;40.75;101163.75;4296158;33;19984;-89
2022/10/18 08:30:27;;;;;;;;;;;;;;;21.37;40.40;101158.44;4296483;33;20323;-92
2022/10/18 08:32:55;;;;;;;;;;;;;;;21.68;40.83;101163.47;4295913;33;19993;-94
2022/10/18 08:35:22;;;;;;;;;;;;;;;21.48;37.98;101157.50;4296529;33;20036;-91
2022/10/18 08:37:51;;;;;;;;;;;;;;;21.63;39.05;101157.38;4283344;33;19990;-93
2022/10/18 08:40:21;;;;;;;;;;;;;;;21.64;38.85;101153.88;4296847;33;20004;-91
2022/10/18 08:42:51;;;;;;;;;;;;;;;21.55;39.92;101149.53;4282725;33;19985;-93
2022/10/18 08:45:18;;;;;;;;;;;;;;;21.37;39.96;101150.53;4296052;33;20034;-95
2022/10/18 08:48:05;;;;;;;;;;;;;;;21.78;38.67;101145.81;4281741;33;19981;-90
2022/10/18 08:50:34;;;;;;;;;;;;;;;21.88;37.80;101138.69;4275968;33;20385;-90
2022/10/18 08:53:05;;;;;;;;;;;;;;;21.81;38.45;101135.25;4287396;33;19984;-93
2022/10/18 08:55:37;;;;;;;;;;;;;;;21.98;38.35;101137.72;4282446;33;19984;-91
2022/10/18 08:58:23;;;;;;;;;;;;;;;22.23;36.49;101123.41;4282122;33;20327;-91
2022/10/18 09:01:09;;;;;;;;;;;;;;;22.27;35.97;101127.78;4276389;33;20036;-90
2022/10/18 09:03:51;;;;;;;;;;;;;;;22.21;36.56;101119.94;4282749;33;19992;-88
2022/10/18 09:06:21;;;;;;;;;;;;;;;22.23;37.84;101118.13;4296090;33;19993;-89
2022/10/18 09:09:04;;;;;;;;;;;;;;;22.06;38.79;101120.06;4295764;33;20024;-89
2022/10/18 09:11:53;;;;;;;;;;;;;;;21.84;34.78;101119.41;4295744;33;20003;-84
2022/10/18 09:14:26;;;;;;;;;;;;;;;21.87;35.16;101114.09;4283707;33;20015;-87
2022/10/18 09:16:53;;;;;;;;;;;;;;;22.36;36.96;101107.44;4295459;33;20008;-87
2022/10/18 09:19:38;;;;;;;;;;;;;;;22.46;34.22;101103.78;4296181;33;19988;-88
2022/10/18 09:22:09;;;;;;;;;;;;;;;22.54;34.51;101098.44;4296382;33;19984;-88
2022/10/18 09:24:57;;;;;;;;;;;;;;;22.51;34.94;101101.97;4295054;33;20410;-87
2022/10/18 09:27:28;;;;;;;;;;;;;;;22.66;32.59;101095.63;4277026;33;19993;-87
2022/10/18 09:29:57;;;;;;;;;;;;;;;22.50;32.53;101095.84;4280400;33;20030;-87
2022/10/18 09:32:24;;;;;;;;;;;;;;;22.78;35.34;101095.44;4283547;33;19985;-83
2022/10/18 09:34:52;;;;;;;;;;;;;;;22.46;33.68;101087.97;4297662;33;20000;-87
2022/10/18 09:37:19;;;;;;;;;;;;;;;22.84;32.15;101083.94;4284184;33;19997;-86
2022/10/18 09:39:47;;;;;;;;;;;;;;;23.15;31.48;101085.25;4284186;33;19980;-86
2022/10/18 09:42:16;;;;;;;;;;;;;;;22.90;30.36;101075.91;4296857;33;20008;-86
2022/10/18 09:44:59;;;;;;;;;;;;;;;22.43;32.89;101082.72;4284122;33;19988;-83
2022/10/18 09:47:59;;;;;;;;;;;;;;;22.61;31.99;101082.47;4284574;33;19984;-84
2022/10/18 09:50:28;;;;;;;;;;;;;;;22.92;32.79;101077.66;4280475;33;19993;-84
2022/10/18 09:53:03;;;;;;;;;;;;;;;22.92;33.64;101076.78;4284409;33;20011;-85
2022/10/18 09:55:31;;;;;;;;;;;;;;;23.13;32.99;101071.19;4284822;33;20377;-84
2022/10/18 09:57:59;;;;;;;;;;;;;;;22.58;33.66;101073.75;4298913;33;20000;-85
2022/10/18 10:00:30;;;;;;;;;;;;;;;22.74;32.54;101068.22;4298144;33;20047;-85
2022/10/18 10:02:57;;;;;;;;;;;;;;;22.79;32.35;101068.16;4298662;33;19980;-87
2022/10/18 10:05:24;;;;;;;;;;;;;;;22.43;32.07;101062.50;4298516;33;20341;-87
2022/10/18 10:07:55;;;;;;;;;;;;;;;22.66;32.98;101062.19;4311155;33;20004;-87
2022/10/18 10:10:23;;;;;;;;;;;;;;;22.97;32.44;101064.37;4297878;33;19994;-85
2022/10/18 10:13:09;;;;;;;;;;;;;;;22.65;32.66;101057.78;4299125;33;19998;-84
2022/10/18 10:15:36;;;;;;;;;;;;;;;23.18;32.28;101042.91;4310199;33;19991;-84
2022/10/18 10:18:20;;;;;;;;;;;;;;;23.11;32.83;101045.69;4305214;33;20002;-85
2022/10/18 10:20:49;;;;;;;;;;;;;;;22.94;33.24;101048.59;4297451;33;19984;-84
2022/10/18 10:23:20;;;;;;;;;;;;;;;22.37;32.44;101045.91;4295996;33;20011;-85
2022/10/18 10:26:00;;;;;;;;;;;;;;;22.73;31.94;101033.94;4305224;33;20361;-83
2022/10/18 10:28:32;;;;;;;;;;;;;;;22.75;33.59;101033.03;4298035;33;19992;-87
2022/10/18 10:31:20;;;;;;;;;;;;;;;22.75;32.38;101037.44;4297983;33;19999;-87
2022/10/18 10:33:47;;;;;;;;;;;;;;;22.39;32.69;101028.25;4298538;33;20727;-85
2022/10/18 10:36:18;;;;;;;;;;;;;;;22.68;32.98;101020.78;4298912;33;19987;-85
2022/10/18 10:38:45;;;;;;;;;;;;;;;22.86;32.58;101024.06;4311686;33;20002;-84
2022/10/18 10:41:17;;;;;;;;;;;;;;;22.96;31.67;101009.84;4312014;33;19996;-83
2022/10/18 10:43:44;;;;;;;;;;;;;;;23.23;33.13;101007.63;4298489;33;20338;-84
2022/10/18 10:46:14;;;;;;;;;;;;;;;23.40;32.79;101005.56;4311951;33;20011;-84
2022/10/18 10:48:44;;;;;;;;;;;;;;;23.51;32.46;101003.59;4297256;33;20043;-85
2022/10/18 10:51:11;;;;;;;;;;;;;;;23.36;32.06;100993.31;4310632;33;20924;-83
2022/10/18 10:53:55;;;;;;;;;;;;;;;23.51;31.72;100998.28;4308845;33;19999;-85
2022/10/18 10:56:26;;;;;;;;;;;;;;;23.72;31.58;100988.25;4297480;33;20355;-84
2022/10/18 10:58:53;;;;;;;;;;;;;;;23.18;31.15;100990.09;4293712;33;20086;-85
2022/10/18 11:01:24;;;;;;;;;;;;;;;22.93;31.74;100983.44;4294428;33;20035;-85
2022/10/18 11:03:56;;;;;;;;;;;;;;;23.21;32.18;100984.75;4294407;33;19989;-83
2022/10/18 11:06:43;;;;;;;;;;;;;;;22.77;32.11;100987.25;4293335;33;20032;-83
2022/10/18 11:09:31;;;;;;;;;;;;;;;23.19;31.60;100981.25;4293850;33;19984;-84
2022/10/18 11:12:18;;;;;;;;;;;;;;;23.08;31.58;100977.09;4293685;33;19988;-86
2022/10/18 11:14:46;;;;;;;;;;;;;;;22.96;31.25;100972.87;4289676;33;19989;-84
2022/10/18 11:17:27;;;;;;;;;;;;;;;23.40;31.41;100976.50;4294328;33;20011;-87
2022/10/18 11:20:06;;;;;;;;;;;;;;;23.35;30.80;100967.78;4293745;33;20000;-84
2022/10/18 11:22:34;;;;;;;;;;;;;;;23.33;31.78;100966.94;4294268;33;19991;-85
2022/10/18 11:25:03;;;;;;;;;;;;;;;23.17;31.94;100964.59;4134517;33;5090345;-82
2022/10/18 11:27:52;;;;;;;;;;;;;;;23.20;30.33;100961.03;4282988;33;20001;-83
2022/10/18 11:30:25;;;;;;;;;;;;;;;23.48;30.55;100950.78;4281929;33;19996;-86
2022/10/18 11:32:54;;;;;;;;;;;;;;;23.85;29.56;100960.66;4288762;33;20304;-85
2022/10/18 11:35:25;;;;;;;;;;;;;;;23.11;29.38;100951.47;4284176;33;20334;-86
2022/10/18 11:38:14;;;;;;;;;;;;;;;23.56;29.05;100935.66;4291271;33;20353;-83
2022/10/18 11:41:00;;;;;;;;;;;;;;;23.58;29.23;100936.50;4295112;33;19988;-83
2022/10/18 11:43:36;;;;;;;;;;;;;;;23.69;30.17;100932.81;4292169;33;20334;-87
2022/10/18 11:46:36;;;;;;;;;;;;;;;23.50;31.79;100926.97;4292000;33;20346;-85
2022/10/18 11:49:18;;;;;;;;;;;;;;;23.49;30.41;100920.81;4295594;33;19992;-87
2022/10/18 11:51:48;;;;;;;;;;;;;;;23.80;31.19;100915.81;4296749;33;20278;-88
2022/10/18 11:54:39;;;;;;;;;;;;;;;23.95;31.10;100909.31;4299810;33;19972;-86
2022/10/18 11:57:11;;;;;;;;;;;;;;;24.18;31.27;100905.28;4293660;33;20007;-85
2022/10/18 11:59:57;;;;;;;;;;;;;;;23.99;29.36;100905.69;4296188;33;20068;-86
2022/10/18 12:02:30;;;;;;;;;;;;;;;24.07;30.61;100903.75;4296765;33;19984;-86
2022/10/18 12:04:59;;;;;;;;;;;;;;;24.11;30.00;100900.12;4302300;33;19998;-84
2022/10/18 12:07:52;;;;;;;;;;;;;;;24.30;29.25;100897.91;4286197;33;19996;-90
2022/10/18 12:10:23;;;;;;;;;;;;;;;24.19;31.02;100894.69;4294147;33;20047;-88
2022/10/18 12:13:16;;;;;;;;;;;;;;;23.88;29.80;100886.56;4307336;33;19988;-87
2022/10/18 12:15:51;;;;;;;;;;;;;;;23.92;29.97;100888.22;4305310;33;19968;-87
2022/10/18 12:18:22;;;;;;;;;;;;;;;23.93;30.19;100879.41;4302133;33;20494;-86
2022/10/18 12:20:53;;;;;;;;;;;;;;;23.76;30.14;100876.25;4304744;33;20039;-87
2022/10/18 12:23:25;;;;;;;;;;;;;;;23.94;30.95;100870.56;4313387;33;20598;-89
2022/10/18 12:25:58;;;;;;;;;;;;;;;23.89;30.17;100864.47;4317636;33;20039;-86
2022/10/18 12:28:43;;;;;;;;;;;;;;;24.08;30.15;100867.59;4301383;33;20000;-85
2022/10/18 12:31:32;;;;;;;;;;;;;;;24.18;30.33;100857.66;4304565;33;19997;-86
2022/10/18 12:34:00;;;;;;;;;;;;;;;24.35;29.01;100860.78;4317649;33;20031;-85
2022/10/18 12:36:27;;;;;;;;;;;;;;;24.07;30.92;100850.84;4300506;33;19984;-83
2022/10/18 12:38:58;;;;;;;;;;;;;;;24.28;30.33;100844.19;4318993;33;20003;-88
2022/10/18 12:41:36;;;;;;;;;;;;;;;23.85;29.96;100845.19;4304699;33;20015;-86
2022/10/18 12:44:03;;;;;;;;;;;;;;;23.89;30.15;100840.69;4308774;33;20813;-88
2022/10/18 12:46:56;;;;;;;;;;;;;;;23.01;30.58;100839.00;4298278;33;20320;-90
2022/10/18 12:49:24;;;;;;;;;;;;;;;23.69;31.12;100848.19;4315866;33;20055;-91
2022/10/18 12:51:56;;;;;;;;;;;;;;;23.84;30.57;100843.44;4317163;33;20011;-89